createdAt,value
2019-05-18T00:02:09.567Z,32.30
2019-05-18T00:04:44.388Z,32.40
2019-05-18T00:07:19.203Z,32.40
2019-05-18T00:09:53.379Z,32.50
2019-05-18T00:12:27.915Z,32.50
2019-05-18T00:15:02.685Z,32.60
2019-05-18T00:17:37.564Z,32.60
2019-05-18T00:20:11.911Z,32.70
2019-05-18T00:22:47.601Z,32.80
2019-05-18T00:25:22.361Z,32.80
2019-05-18T00:27:57.004Z,32.90
2019-05-18T00:30:31.569Z,33.00
2019-05-18T00:33:24.153Z,33.10
2019-05-18T00:36:07.268Z,33.20
2019-05-18T00:38:45.767Z,33.30
2019-05-18T00:41:21.874Z,33.40
2019-05-18T00:43:57.050Z,33.40
2019-05-18T00:46:31.579Z,33.50
2019-05-18T00:49:06.995Z,33.60
2019-05-18T00:51:43.130Z,33.70
2019-05-18T00:54:17.863Z,33.80
2019-05-18T00:56:52.114Z,33.90
2019-05-18T00:59:27.579Z,34.00
2019-05-18T01:02:02.200Z,34.10
2019-05-18T01:04:36.707Z,34.20
2019-05-18T01:07:10.573Z,34.30
2019-05-18T01:09:45.158Z,34.30
2019-05-18T01:12:19.432Z,34.40
2019-05-18T01:14:53.943Z,34.50
2019-05-18T01:17:28.458Z,34.60
2019-05-18T01:20:03.337Z,34.70
2019-05-18T01:22:40.214Z,34.80
2019-05-18T01:25:14.896Z,34.90
2019-05-18T01:27:49.442Z,34.90
2019-05-18T01:30:24.011Z,35.00
2019-05-18T01:32:58.373Z,35.10
2019-05-18T01:35:32.601Z,35.20
2019-05-18T01:38:07.980Z,35.30
2019-05-18T01:40:48.106Z,35.30
2019-05-18T01:43:24.351Z,35.40
2019-05-18T01:46:07.488Z,35.50
2019-05-18T01:48:42.410Z,35.60
2019-05-18T01:51:18.789Z,35.70
2019-05-18T01:53:53.324Z,35.70
2019-05-18T01:56:28.311Z,35.90
2019-05-18T01:59:08.450Z,35.90
2019-05-18T02:01:42.930Z,36.10
2019-05-18T02:04:17.394Z,36.10
2019-05-18T02:06:52.003Z,36.20
2019-05-18T02:09:26.763Z,36.20
2019-05-18T02:12:01.328Z,36.30
2019-05-18T02:14:35.640Z,36.40
2019-05-18T02:17:10.950Z,36.40
2019-05-18T02:19:45.518Z,36.50
2019-05-18T02:22:20.369Z,36.50
2019-05-18T02:24:55.046Z,36.60
2019-05-18T02:27:29.846Z,36.70
2019-05-18T02:30:04.581Z,36.70
2019-05-18T02:32:39.037Z,36.80
2019-05-18T02:35:13.700Z,36.80
2019-05-18T02:37:48.563Z,36.90
2019-05-18T02:40:23.035Z,36.90
2019-05-18T02:42:57.535Z,37.00
2019-05-18T02:45:32.164Z,37.00
2019-05-18T02:48:06.805Z,37.10
2019-05-18T02:50:41.240Z,37.10
2019-05-18T02:53:15.618Z,37.20
2019-05-18T02:55:50.367Z,37.20
2019-05-18T02:58:25.129Z,37.10
2019-05-18T03:01:00.150Z,37.20
2019-05-18T03:03:34.921Z,37.20
2019-05-18T03:06:10.879Z,37.20
2019-05-18T03:08:45.773Z,37.20
2019-05-18T03:11:19.894Z,37.20
2019-05-18T03:13:54.739Z,37.20
2019-05-18T03:16:29.024Z,37.20
2019-05-18T03:19:08.672Z,37.20
2019-05-18T03:21:41.449Z,37.30
2019-05-18T03:24:15.820Z,37.30
2019-05-18T03:26:50.099Z,37.30
2019-05-18T03:29:24.846Z,37.30
2019-05-18T03:31:59.769Z,37.40
2019-05-18T03:34:34.501Z,37.40
2019-05-18T03:37:10.626Z,37.40
2019-05-18T03:39:47.035Z,37.50
2019-05-18T03:42:21.775Z,37.50
2019-05-18T03:44:56.215Z,37.60
2019-05-18T03:47:30.337Z,37.60
2019-05-18T03:50:04.867Z,37.70
2019-05-18T03:52:40.710Z,37.70
2019-05-18T03:55:15.082Z,37.80
2019-05-18T03:57:49.538Z,37.80
2019-05-18T04:00:24.295Z,37.90
2019-05-18T04:02:58.694Z,37.90
2019-05-18T04:05:32.939Z,38.00
2019-05-18T04:08:07.850Z,38.00
2019-05-18T04:10:42.160Z,38.10
2019-05-18T04:13:17.430Z,38.10
2019-05-18T04:15:53.146Z,38.20
2019-05-18T04:18:27.627Z,38.20
2019-05-18T04:21:02.431Z,38.20
2019-05-18T04:23:36.855Z,38.20
2019-05-18T04:26:10.801Z,38.30
2019-05-18T04:28:46.868Z,38.30
2019-05-18T04:31:21.858Z,38.30
2019-05-18T04:33:56.600Z,38.30
2019-05-18T04:36:31.189Z,38.40
2019-05-18T04:39:06.217Z,38.40
2019-05-18T04:41:41.874Z,38.40
2019-05-18T04:44:16.533Z,38.50
2019-05-18T04:46:50.983Z,38.60
2019-05-18T04:49:25.462Z,38.60
2019-05-18T04:52:01.446Z,38.60
2019-05-18T04:54:36.405Z,38.60
2019-05-18T04:57:10.844Z,38.70
2019-05-18T04:59:46.345Z,38.60
2019-05-18T05:02:21.789Z,38.60
2019-05-18T05:04:59.551Z,38.60
2019-05-18T05:07:34.131Z,38.50
2019-05-18T05:10:08.986Z,38.50
2019-05-18T05:12:43.431Z,38.40
2019-05-18T05:15:17.955Z,38.40
2019-05-18T05:17:52.479Z,38.40
2019-05-18T05:20:27.077Z,38.40
2019-05-18T05:23:01.882Z,38.40
2019-05-18T05:25:36.562Z,38.40
2019-05-18T05:28:10.904Z,38.50
2019-05-18T05:30:45.801Z,38.50
2019-05-18T05:33:20.567Z,38.60
2019-05-18T05:35:55.112Z,38.60
2019-05-18T05:38:30.915Z,38.60
2019-05-18T05:41:06.045Z,38.70
2019-05-18T05:43:40.981Z,38.80
2019-05-18T05:46:15.914Z,38.80
2019-05-18T05:48:50.778Z,38.90
2019-05-18T05:51:25.389Z,38.90
2019-05-18T05:54:00.224Z,38.90
2019-05-18T05:56:34.623Z,39.00
2019-05-18T05:59:09.593Z,39.00
2019-05-18T06:01:43.846Z,39.10
2019-05-18T06:04:18.311Z,39.20
2019-05-18T06:06:53.098Z,39.20
2019-05-18T06:09:27.787Z,39.30
2019-05-18T06:12:02.298Z,39.30
2019-05-18T06:14:36.696Z,39.30
2019-05-18T06:17:11.250Z,39.30
2019-05-18T06:19:46.084Z,39.40
2019-05-18T06:22:22.159Z,39.40
2019-05-18T06:24:56.232Z,39.40
2019-05-18T06:27:30.506Z,39.40
2019-05-18T06:30:05.271Z,39.30
2019-05-18T06:32:39.596Z,39.30
2019-05-18T06:35:14.362Z,39.10
2019-05-18T06:37:49.143Z,39.10
2019-05-18T06:40:23.862Z,39.10
2019-05-18T06:43:00.034Z,39.00
2019-05-18T06:45:34.632Z,39.00
2019-05-18T06:48:08.943Z,39.10
2019-05-18T06:50:43.418Z,39.10
2019-05-18T06:53:20.570Z,39.10
2019-05-18T06:55:58.456Z,39.10
2019-05-18T06:58:33.224Z,39.20
2019-05-18T07:01:07.666Z,39.30
2019-05-18T07:03:44.968Z,39.30
2019-05-18T07:06:18.840Z,39.30
2019-05-18T07:08:53.324Z,39.30
2019-05-18T07:11:28.837Z,39.40
2019-05-18T07:14:03.626Z,39.50
2019-05-18T07:16:38.203Z,39.40
2019-05-18T07:19:12.394Z,39.50
2019-05-18T07:21:46.763Z,39.50
2019-05-18T07:24:21.278Z,39.50
2019-05-18T07:26:55.931Z,39.50
2019-05-18T07:29:30.126Z,39.50
2019-05-18T07:32:04.759Z,39.50
2019-05-18T07:34:39.346Z,39.50
2019-05-18T07:37:13.705Z,39.50
2019-05-18T07:39:48.350Z,39.50
2019-05-18T07:42:22.660Z,39.50
2019-05-18T07:44:57.427Z,39.60
2019-05-18T07:47:33.152Z,39.50
2019-05-18T07:50:07.644Z,39.50
2019-05-18T07:52:43.166Z,39.50
2019-05-18T07:55:17.769Z,39.50
2019-05-18T07:57:52.614Z,39.50
2019-05-18T08:00:27.454Z,39.50
2019-05-18T08:03:02.648Z,39.50
2019-05-18T08:05:37.608Z,39.50
2019-05-18T08:08:11.864Z,39.50
2019-05-18T08:10:46.601Z,39.50
2019-05-18T08:13:21.053Z,39.50
2019-05-18T08:15:55.528Z,39.50
2019-05-18T08:18:30.033Z,39.50
2019-05-18T08:21:04.732Z,39.50
2019-05-18T08:23:40.465Z,39.50
2019-05-18T08:26:15.869Z,39.50
2019-05-18T08:28:50.487Z,39.50
2019-05-18T08:31:25.280Z,39.40
2019-05-18T08:33:59.842Z,39.40
2019-05-18T08:36:34.621Z,39.30
2019-05-18T08:39:11.141Z,39.30
2019-05-18T08:41:48.635Z,39.20
2019-05-18T08:44:21.827Z,39.30
2019-05-18T08:46:56.799Z,39.20
2019-05-18T08:49:31.241Z,39.20
2019-05-18T08:52:08.180Z,39.20
2019-05-18T08:54:41.751Z,39.20
2019-05-18T08:57:17.456Z,39.30
2019-05-18T08:59:51.913Z,39.30
2019-05-18T09:02:27.523Z,39.20
2019-05-18T09:05:04.885Z,39.30
2019-05-18T09:07:38.496Z,39.30
2019-05-18T09:10:13.249Z,39.30
2019-05-18T09:12:47.320Z,39.30
2019-05-18T09:15:21.846Z,39.30
2019-05-18T09:17:56.636Z,39.30
2019-05-18T09:20:31.453Z,39.30
2019-05-18T09:23:06.289Z,39.30
2019-05-18T09:25:40.966Z,39.30
2019-05-18T09:28:15.570Z,39.40
2019-05-18T09:30:51.148Z,39.40
2019-05-18T09:33:26.108Z,39.40
2019-05-18T09:36:01.091Z,39.40
2019-05-18T09:38:35.746Z,39.40
2019-05-18T09:41:10.167Z,39.40
2019-05-18T09:43:44.913Z,39.30
2019-05-18T09:46:19.897Z,39.30
2019-05-18T09:48:55.613Z,39.20
2019-05-18T09:51:30.063Z,39.20
2019-05-18T09:54:05.451Z,39.10
2019-05-18T09:56:40.821Z,39.10
2019-05-18T09:59:19.046Z,39.10
2019-05-18T10:02:00.970Z,39.00
2019-05-18T10:04:38.410Z,39.00
2019-05-18T10:07:13.249Z,39.00
2019-05-18T10:09:47.894Z,39.00
2019-05-18T10:12:24.753Z,38.90
2019-05-18T10:14:58.110Z,38.80
2019-05-18T10:17:33.061Z,38.80
2019-05-18T10:20:08.233Z,38.80
2019-05-18T10:22:55.614Z,38.80
2019-05-18T10:25:18.644Z,38.70
2019-05-18T10:27:53.519Z,38.70
2019-05-18T10:30:28.799Z,38.70
2019-05-18T10:33:03.533Z,38.70
2019-05-18T10:35:38.201Z,38.60
2019-05-18T10:38:12.907Z,38.50
2019-05-18T10:40:48.098Z,38.50
2019-05-18T10:43:22.688Z,38.40
2019-05-18T10:45:57.292Z,38.40
2019-05-18T10:48:31.918Z,38.30
2019-05-18T10:51:07.396Z,38.30
2019-05-18T10:53:44.606Z,38.20
2019-05-18T10:56:19.487Z,38.10
2019-05-18T10:58:53.710Z,38.00
2019-05-18T11:01:30.022Z,38.00
2019-05-18T11:04:05.529Z,37.90
2019-05-18T11:06:40.281Z,37.80
2019-05-18T11:09:14.728Z,37.80
2019-05-18T11:11:49.289Z,37.80
2019-05-18T11:14:24.819Z,37.80
2019-05-18T11:16:59.489Z,37.70
2019-05-18T11:19:35.036Z,37.70
2019-05-18T11:22:10.614Z,37.60
2019-05-18T11:24:45.088Z,37.60
2019-05-18T11:27:20.883Z,37.50
2019-05-18T11:29:55.234Z,37.50
2019-05-18T11:32:29.406Z,37.40
2019-05-18T11:35:04.091Z,37.40
2019-05-18T11:37:38.683Z,37.30
2019-05-18T11:40:13.268Z,37.30
2019-05-18T11:42:48.068Z,37.20
2019-05-18T11:45:23.993Z,37.20
2019-05-18T11:47:58.456Z,37.10
2019-05-18T11:50:33.325Z,37.00
2019-05-18T11:53:07.620Z,37.00
2019-05-18T11:55:41.924Z,36.90
2019-05-18T11:58:16.298Z,36.80
2019-05-18T12:00:51.098Z,36.80
2019-05-18T12:03:27.060Z,36.70
2019-05-18T12:06:01.821Z,36.70
2019-05-18T12:08:37.282Z,36.60
2019-05-18T12:11:11.853Z,36.50
2019-05-18T12:13:46.562Z,36.40
2019-05-18T12:16:20.962Z,36.30
2019-05-18T12:18:57.582Z,36.20
2019-05-18T12:21:32.183Z,36.20
2019-05-18T12:24:15.467Z,36.10
2019-05-18T12:26:44.955Z,36.00
2019-05-18T12:29:20.885Z,36.00
2019-05-18T12:31:55.546Z,35.90
2019-05-18T12:34:30.273Z,35.80
2019-05-18T12:37:04.892Z,35.80
2019-05-18T12:39:39.368Z,35.70
2019-05-18T12:42:14.121Z,35.70
2019-05-18T12:44:48.650Z,35.60
2019-05-18T12:47:23.269Z,35.50
2019-05-18T12:49:58.105Z,35.50
2019-05-18T12:52:32.896Z,35.40
2019-05-18T12:55:07.856Z,35.40
2019-05-18T12:57:42.573Z,35.30
2019-05-18T13:00:17.429Z,35.30
2019-05-18T13:02:51.836Z,35.20
2019-05-18T13:05:26.437Z,35.20
2019-05-18T13:08:01.007Z,35.10
2019-05-18T13:10:35.792Z,35.10
2019-05-18T13:13:12.939Z,35.10
2019-05-18T13:15:47.528Z,35.10
2019-05-18T13:18:22.482Z,35.00
2019-05-18T13:20:56.788Z,35.00
2019-05-18T13:23:30.985Z,35.00
2019-05-18T13:26:05.795Z,34.90
2019-05-18T13:28:40.767Z,34.90
2019-05-18T13:31:15.252Z,34.80
2019-05-18T13:33:50.015Z,34.80
2019-05-18T13:36:24.479Z,34.80
2019-05-18T13:38:59.474Z,34.70
2019-05-18T13:41:34.193Z,34.70
2019-05-18T13:44:08.955Z,34.70
2019-05-18T13:46:43.217Z,34.60
2019-05-18T13:49:19.818Z,34.60
2019-05-18T13:51:54.918Z,34.60
2019-05-18T13:54:30.233Z,34.50
2019-05-18T13:57:05.477Z,34.50
2019-05-18T13:59:41.557Z,34.50
2019-05-18T14:02:17.210Z,34.50
2019-05-18T14:04:52.021Z,34.50
2019-05-18T14:07:26.410Z,34.40
2019-05-18T14:10:01.308Z,34.40
2019-05-18T14:12:35.810Z,34.40
2019-05-18T14:15:13.260Z,34.40
2019-05-18T14:17:48.078Z,34.30
2019-05-18T14:20:22.693Z,34.40
2019-05-18T14:23:13.723Z,34.30
2019-05-18T14:25:48.280Z,34.30
2019-05-18T14:28:22.945Z,34.30
2019-05-18T14:30:57.453Z,34.20
2019-05-18T14:33:31.957Z,34.20
2019-05-18T14:36:06.303Z,34.20
2019-05-18T14:38:41.170Z,34.10
2019-05-18T14:41:15.922Z,34.20
2019-05-18T14:43:50.640Z,34.10
2019-05-18T14:46:25.138Z,34.10
2019-05-18T14:48:59.869Z,34.10
2019-05-18T14:51:34.801Z,34.10
2019-05-18T14:54:09.107Z,34.00
2019-05-18T14:56:43.725Z,34.00
2019-05-18T14:59:18.002Z,34.00
2019-05-18T15:01:53.034Z,33.90
2019-05-18T15:04:27.724Z,33.90
2019-05-18T15:07:02.944Z,33.90
2019-05-18T15:09:37.222Z,33.80
2019-05-18T15:12:12.933Z,33.80
2019-05-18T15:14:47.647Z,33.70
2019-05-18T15:17:22.141Z,33.70
2019-05-18T15:19:56.772Z,33.70
2019-05-18T15:22:31.749Z,33.70
2019-05-18T15:25:06.651Z,33.70
2019-05-18T15:27:41.053Z,33.60
2019-05-18T15:30:15.811Z,33.60
2019-05-18T15:32:49.994Z,33.60
2019-05-18T15:35:24.769Z,33.60
2019-05-18T15:37:59.497Z,33.60
2019-05-18T15:40:34.276Z,33.60
2019-05-18T15:43:08.838Z,33.60
2019-05-18T15:45:43.550Z,33.60
2019-05-18T15:48:18.212Z,33.60
2019-05-18T15:50:53.224Z,33.50
2019-05-18T15:53:27.744Z,33.50
2019-05-18T15:56:05.806Z,33.50
2019-05-18T15:58:38.548Z,33.50
2019-05-18T16:01:13.281Z,33.50
2019-05-18T16:03:48.009Z,33.50
2019-05-18T16:06:23.089Z,33.50
2019-05-18T16:08:58.160Z,33.50
2019-05-18T16:11:32.586Z,33.50
2019-05-18T16:14:08.061Z,33.50
2019-05-18T16:16:42.894Z,33.50
2019-05-18T16:19:17.369Z,33.50
2019-05-18T16:21:52.347Z,33.40
2019-05-18T16:24:26.949Z,33.40
2019-05-18T16:27:01.983Z,33.40
2019-05-18T16:29:54.195Z,33.40
2019-05-18T16:32:29.900Z,33.40
2019-05-18T16:35:04.683Z,33.40
2019-05-18T16:37:39.472Z,33.30
2019-05-18T16:40:14.259Z,33.30
2019-05-18T16:42:48.835Z,33.40
2019-05-18T16:45:23.533Z,33.30
2019-05-18T16:47:59.078Z,33.30
2019-05-18T16:50:35.496Z,33.30
2019-05-18T16:53:10.227Z,33.30
2019-05-18T16:55:44.695Z,33.30
2019-05-18T16:58:20.566Z,33.30
2019-05-18T17:00:55.651Z,33.30
2019-05-18T17:03:30.107Z,33.30
2019-05-18T17:06:04.861Z,33.30
2019-05-18T17:08:39.729Z,33.30
2019-05-18T17:11:15.107Z,33.30
2019-05-18T17:13:50.461Z,33.30
2019-05-18T17:16:24.994Z,33.30
2019-05-18T17:18:59.854Z,33.30
2019-05-18T17:21:34.891Z,33.20
2019-05-18T17:24:09.264Z,33.20
2019-05-18T17:26:52.205Z,33.20
2019-05-18T17:29:20.518Z,33.10
2019-05-18T17:31:55.648Z,33.10
2019-05-18T17:34:30.606Z,33.10
2019-05-18T17:37:05.351Z,33.00
2019-05-18T17:39:40.207Z,33.00
2019-05-18T17:42:14.868Z,33.00
2019-05-18T17:44:50.737Z,33.00
2019-05-18T17:47:25.588Z,33.00
2019-05-18T17:50:00.227Z,33.00
2019-05-18T17:52:34.688Z,33.00
2019-05-18T17:55:10.757Z,33.00
2019-05-18T17:57:45.407Z,33.00
2019-05-18T18:00:20.830Z,33.00
2019-05-18T18:02:55.713Z,33.00
2019-05-18T18:05:30.502Z,33.10
2019-05-18T18:08:05.174Z,33.00
2019-05-18T18:10:39.531Z,33.00
2019-05-18T18:13:23.508Z,33.00
2019-05-18T18:15:58.201Z,33.00
2019-05-18T18:18:34.884Z,33.00
2019-05-18T18:21:09.025Z,33.00
2019-05-18T18:23:43.746Z,33.00
2019-05-18T18:26:18.675Z,33.00
2019-05-18T18:28:53.886Z,33.00
2019-05-18T18:31:28.707Z,33.00
2019-05-18T18:34:03.679Z,33.00
2019-05-18T18:36:38.058Z,33.10
2019-05-18T18:39:14.391Z,33.00
2019-05-18T18:41:48.811Z,33.10
2019-05-18T18:44:23.336Z,33.10
2019-05-18T18:46:58.113Z,33.10
2019-05-18T18:49:32.907Z,33.10
2019-05-18T18:52:07.096Z,33.10
2019-05-18T18:54:42.100Z,33.10
2019-05-18T18:57:16.906Z,33.10
2019-05-18T18:59:51.675Z,33.10
2019-05-18T19:02:26.619Z,33.10
2019-05-18T19:05:01.346Z,33.10
2019-05-18T19:10:28.264Z,33.10
2019-05-18T19:13:03.385Z,33.10
2019-05-18T19:15:38.362Z,33.10
2019-05-18T19:18:12.954Z,33.10
2019-05-18T19:20:47.946Z,33.10
2019-05-18T19:23:22.062Z,33.10
2019-05-18T19:25:56.574Z,33.10
2019-05-18T19:28:31.357Z,33.10
2019-05-18T19:31:05.695Z,33.10
2019-05-18T19:33:40.377Z,33.10
2019-05-18T19:36:15.429Z,33.10
2019-05-18T19:38:49.850Z,33.10
2019-05-18T19:41:25.266Z,33.10
2019-05-18T19:43:59.731Z,33.10
2019-05-18T19:46:34.914Z,33.00
2019-05-18T19:49:10.016Z,33.00
2019-05-18T19:51:44.890Z,33.10
2019-05-18T19:54:19.251Z,33.00
2019-05-18T19:56:55.092Z,33.00
2019-05-18T19:59:30.122Z,33.00
2019-05-18T20:02:04.559Z,33.00
2019-05-18T20:04:39.311Z,33.00
2019-05-18T20:07:13.734Z,33.00
2019-05-18T20:09:49.289Z,33.00
2019-05-18T20:12:24.218Z,33.00
2019-05-18T20:14:59.116Z,33.00
2019-05-18T20:17:33.665Z,33.00
2019-05-18T20:20:08.359Z,33.00
2019-05-18T20:22:44.103Z,33.00
2019-05-18T20:25:20.218Z,33.00
2019-05-18T20:27:55.008Z,32.90
2019-05-18T20:30:29.537Z,32.90
2019-05-18T20:33:05.483Z,32.90
2019-05-18T20:35:40.153Z,32.90
2019-05-18T20:38:14.916Z,32.90
2019-05-18T20:40:49.808Z,32.90
2019-05-18T20:43:24.608Z,32.90
2019-05-18T20:45:59.344Z,32.90
2019-05-18T20:48:34.377Z,32.80
2019-05-18T20:51:08.938Z,32.80
2019-05-18T20:53:43.452Z,32.80
2019-05-18T20:56:18.282Z,32.80
2019-05-18T20:58:53.125Z,32.80
2019-05-18T21:01:28.773Z,32.80
2019-05-18T21:04:03.307Z,32.80
2019-05-18T21:06:38.045Z,32.80
2019-05-18T21:09:12.484Z,32.80
2019-05-18T21:11:47.214Z,32.80
2019-05-18T21:14:22.777Z,32.80
2019-05-18T21:16:57.533Z,32.80
2019-05-18T21:19:32.472Z,32.70
2019-05-18T21:22:07.023Z,32.70
2019-05-18T21:24:41.995Z,32.70
2019-05-18T21:27:18.425Z,32.70
2019-05-18T21:29:53.262Z,32.70
2019-05-18T21:32:27.800Z,32.70
2019-05-18T21:35:02.431Z,32.60
2019-05-18T21:37:37.429Z,32.60
2019-05-18T21:40:11.960Z,32.60
2019-05-18T21:42:46.483Z,32.60
2019-05-18T21:45:21.124Z,32.60
2019-05-18T21:47:55.902Z,32.60
2019-05-18T21:50:30.522Z,32.60
2019-05-18T21:53:05.735Z,32.60
2019-05-18T21:55:40.296Z,32.60
2019-05-18T21:58:15.053Z,32.60
2019-05-18T22:00:49.815Z,32.60
2019-05-18T22:03:24.629Z,32.50
2019-05-18T22:05:59.328Z,32.50
2019-05-18T22:08:35.053Z,32.50
2019-05-18T22:11:09.815Z,32.50
2019-05-18T22:13:44.630Z,32.50
2019-05-18T22:16:19.885Z,32.50
2019-05-18T22:18:54.211Z,32.40
2019-05-18T22:21:28.649Z,32.40
2019-05-18T22:24:03.397Z,32.40
2019-05-18T22:26:38.489Z,32.40
2019-05-18T22:29:13.939Z,32.40
2019-05-18T22:31:48.519Z,32.30
2019-05-18T22:34:23.232Z,32.40
2019-05-18T22:36:57.762Z,32.30
2019-05-18T22:39:32.530Z,32.30
2019-05-18T22:42:07.607Z,32.30
2019-05-18T22:44:42.073Z,32.30
2019-05-18T22:47:16.895Z,32.30
2019-05-18T22:49:51.602Z,32.30
2019-05-18T22:52:26.209Z,32.30
2019-05-18T22:55:00.868Z,32.30
2019-05-18T22:57:35.674Z,32.30
2019-05-18T23:00:10.331Z,32.30
2019-05-18T23:02:45.105Z,32.30
2019-05-18T23:05:19.852Z,32.20
2019-05-18T23:07:54.625Z,32.20
2019-05-18T23:10:29.506Z,32.20
2019-05-18T23:13:03.795Z,32.20
2019-05-18T23:15:38.797Z,32.20
2019-05-18T23:18:20.496Z,32.20
2019-05-18T23:20:56.579Z,32.20
2019-05-18T23:23:46.940Z,32.10
2019-05-18T23:26:21.393Z,32.20
2019-05-18T23:28:56.420Z,32.20
2019-05-18T23:31:30.799Z,32.20
2019-05-18T23:34:05.128Z,32.20
2019-05-18T23:36:41.483Z,32.20
2019-05-18T23:39:16.067Z,32.30
2019-05-18T23:41:51.695Z,32.30
2019-05-18T23:44:26.364Z,32.30
2019-05-18T23:47:01.062Z,32.40
2019-05-18T23:49:36.120Z,32.40
2019-05-18T23:52:11.191Z,32.50
2019-05-18T23:54:45.894Z,32.50
2019-05-18T23:57:20.845Z,32.60
2019-05-18T23:59:55.711Z,32.70
